sensor_id;sensor_type;location;lat;lon;timestamp;pressure;altitude;pressure_sealevel;temperature;humidity
53758;BME280;39674;59.860;30.672;2023-05-22T00:12:12;102083.72;;;11.65;64.56
53758;BME280;39674;59.860;30.672;2023-05-22T00:15:20;102080.31;;;11.62;64.63
53758;BME280;39674;59.860;30.672;2023-05-22T00:18:35;102023.50;;;11.20;65.29
53758;BME280;39674;59.860;30.672;2023-05-22T00:21:50;102059.84;;;11.42;66.08
53758;BME280;39674;59.860;30.672;2023-05-22T00:24:42;102092.88;;;11.55;65.89
53758;BME280;39674;59.860;30.672;2023-05-22T00:30:55;102013.22;;;11.11;65.97
53758;BME280;39674;59.860;30.672;2023-05-22T00:48:01;101990.47;;;11.06;65.91
53758;BME280;39674;59.860;30.672;2023-05-22T00:51:00;102075.50;;;11.48;67.02
53758;BME280;39674;59.860;30.672;2023-05-22T00:54:07;102002.84;;;11.04;66.76
53758;BME280;39674;59.860;30.672;2023-05-22T00:57:25;101976.16;;;10.85;67.09
53758;BME280;39674;59.860;30.672;2023-05-22T01:12:04;102110.88;;;11.70;67.68
53758;BME280;39674;59.860;30.672;2023-05-22T01:15:20;101982.03;;;10.95;67.77
53758;BME280;39674;59.860;30.672;2023-05-22T01:18:32;101978.44;;;10.96;67.63
53758;BME280;39674;59.860;30.672;2023-05-22T01:29:09;102054.50;;;11.43;68.74
53758;BME280;39674;59.860;30.672;2023-05-22T01:32:27;101990.41;;;11.08;68.57
53758;BME280;39674;59.860;30.672;2023-05-22T01:35:04;102020.88;;;11.20;68.31
53758;BME280;39674;59.860;30.672;2023-05-22T01:37:43;102047.53;;;11.40;68.34
53758;BME280;39674;59.860;30.672;2023-05-22T01:40:34;102032.66;;;11.36;68.60
53758;BME280;39674;59.860;30.672;2023-05-22T01:43:19;101987.66;;;11.11;68.62
53758;BME280;39674;59.860;30.672;2023-05-22T01:47:11;102078.97;;;11.75;67.97
53758;BME280;39674;59.860;30.672;2023-05-22T01:51:18;102092.31;;;11.72;68.47
53758;BME280;39674;59.860;30.672;2023-05-22T02:04:22;101971.25;;;11.01;68.50
53758;BME280;39674;59.860;30.672;2023-05-22T02:07:26;102033.25;;;11.45;69.10
53758;BME280;39674;59.860;30.672;2023-05-22T02:10:05;101955.41;;;11.00;68.63
53758;BME280;39674;59.860;30.672;2023-05-22T02:12:59;101952.00;;;10.96;68.04
53758;BME280;39674;59.860;30.672;2023-05-22T02:16:35;102002.53;;;11.40;68.14
53758;BME280;39674;59.860;30.672;2023-05-22T02:19:13;102013.91;;;11.43;68.31
53758;BME280;39674;59.860;30.672;2023-05-22T02:22:22;102024.25;;;11.50;68.60
53758;BME280;39674;59.860;30.672;2023-05-22T02:25:27;102015.09;;;11.34;69.77
53758;BME280;39674;59.860;30.672;2023-05-22T02:28:12;102016.97;;;11.30;69.28
53758;BME280;39674;59.860;30.672;2023-05-22T02:31:04;102101.00;;;11.76;69.45
53758;BME280;39674;59.860;30.672;2023-05-22T02:34:25;102042.88;;;11.47;69.82
53758;BME280;39674;59.860;30.672;2023-05-22T02:37:11;102017.91;;;11.29;69.48
53758;BME280;39674;59.860;30.672;2023-05-22T02:40:51;102055.94;;;11.52;69.74
53758;BME280;39674;59.860;30.672;2023-05-22T02:50:00;101978.63;;;10.90;71.00
53758;BME280;39674;59.860;30.672;2023-05-22T02:59:33;102070.16;;;11.22;72.78
53758;BME280;39674;59.860;30.672;2023-05-22T03:03:11;101990.91;;;10.64;73.63
53758;BME280;39674;59.860;30.672;2023-05-22T03:06:02;102063.91;;;10.97;75.09
53758;BME280;39674;59.860;30.672;2023-05-22T03:10:16;102043.72;;;10.94;74.75
53758;BME280;39674;59.860;30.672;2023-05-22T03:12:32;102127.78;;;11.39;75.89
53758;BME280;39674;59.860;30.672;2023-05-22T03:15:32;102010.09;;;10.71;75.64
53758;BME280;39674;59.860;30.672;2023-05-22T03:18:20;102063.22;;;10.90;76.67
53758;BME280;39674;59.860;30.672;2023-05-22T03:22:02;102134.13;;;11.34;77.35
53758;BME280;39674;59.860;30.672;2023-05-22T03:24:32;102118.41;;;11.29;78.12
53758;BME280;39674;59.860;30.672;2023-05-22T03:28:20;102058.50;;;11.01;77.40
53758;BME280;39674;59.860;30.672;2023-05-22T03:31:05;102085.31;;;11.16;78.65
53758;BME280;39674;59.860;30.672;2023-05-22T03:36:17;101967.53;;;10.52;79.78
53758;BME280;39674;59.860;30.672;2023-05-22T03:37:38;102102.50;;;11.31;81.58
53758;BME280;39674;59.860;30.672;2023-05-22T04:14:26;102081.50;;;11.53;98.71
53758;BME280;39674;59.860;30.672;2023-05-22T04:16:58;102086.16;;;11.45;96.41
53758;BME280;39674;59.860;30.672;2023-05-22T04:19:59;102049.53;;;11.32;99.53
53758;BME280;39674;59.860;30.672;2023-05-22T04:22:42;101997.28;;;11.14;100.00
53758;BME280;39674;59.860;30.672;2023-05-22T04:25:28;102043.78;;;11.46;100.00
53758;BME280;39674;59.860;30.672;2023-05-22T04:28:26;102065.69;;;11.77;100.00
53758;BME280;39674;59.860;30.672;2023-05-22T04:34:35;101918.41;;;11.00;100.00
53758;BME280;39674;59.860;30.672;2023-05-22T04:41:18;102025.91;;;11.78;100.00
53758;BME280;39674;59.860;30.672;2023-05-22T05:10:45;101967.41;;;12.57;100.00
53758;BME280;39674;59.860;30.672;2023-05-22T05:14:37;101899.03;;;12.43;100.00
53758;BME280;39674;59.860;30.672;2023-05-22T05:18:14;101902.66;;;12.63;100.00
53758;BME280;39674;59.860;30.672;2023-05-22T05:21:35;101899.06;;;12.86;100.00
53758;BME280;39674;59.860;30.672;2023-05-22T05:33:55;101883.41;;;13.21;100.00
53758;BME280;39674;59.860;30.672;2023-05-22T05:36:46;101882.03;;;13.73;100.00
53758;BME280;39674;59.860;30.672;2023-05-22T05:45:18;101884.66;;;14.30;100.00
53758;BME280;39674;59.860;30.672;2023-05-22T07:12:42;101995.19;;;17.97;85.79
53758;BME280;39674;59.860;30.672;2023-05-22T09:06:26;101830.66;;;20.01;68.64
53758;BME280;39674;59.860;30.672;2023-05-22T09:35:28;101802.50;;;20.55;64.29
53758;BME280;39674;59.860;30.672;2023-05-22T09:43:25;101802.47;;;21.13;63.19
53758;BME280;39674;59.860;30.672;2023-05-22T10:06:17;101777.09;;;21.95;61.91
53758;BME280;39674;59.860;30.672;2023-05-22T11:26:27;101731.78;;;20.90;60.50
53758;BME280;39674;59.860;30.672;2023-05-22T12:03:25;101685.50;;;19.94;61.60
53758;BME280;39674;59.860;30.672;2023-05-22T12:43:39;101859.75;;;18.25;64.55
53758;BME280;39674;59.860;30.672;2023-05-22T12:53:37;101847.16;;;15.73;82.92
53758;BME280;39674;59.860;30.672;2023-05-22T12:59:47;101756.72;;;14.20;88.47
53758;BME280;39674;59.860;30.672;2023-05-22T13:02:54;101722.44;;;13.79;91.67
53758;BME280;39674;59.860;30.672;2023-05-22T13:06:02;101868.84;;;14.64;91.61
53758;BME280;39674;59.860;30.672;2023-05-22T13:09:15;101747.34;;;13.57;92.90
53758;BME280;39674;59.860;30.672;2023-05-22T13:14:55;101825.84;;;13.63;96.42
53758;BME280;39674;59.860;30.672;2023-05-22T13:17:46;101883.91;;;13.90;96.39
53758;BME280;39674;59.860;30.672;2023-05-22T13:20:48;101823.13;;;13.45;98.42
53758;BME280;39674;59.860;30.672;2023-05-22T13:23:27;101862.16;;;13.62;97.83
53758;BME280;39674;59.860;30.672;2023-05-22T13:28:26;101765.41;;;13.11;97.87
53758;BME280;39674;59.860;30.672;2023-05-22T13:31:08;101790.91;;;13.53;98.62
53758;BME280;39674;59.860;30.672;2023-05-22T13:33:50;101864.31;;;13.92;99.46
53758;BME280;39674;59.860;30.672;2023-05-22T13:36:27;101859.00;;;13.92;100.00
53758;BME280;39674;59.860;30.672;2023-05-22T13:39:32;101840.63;;;14.07;98.83
53758;BME280;39674;59.860;30.672;2023-05-22T13:42:59;101816.19;;;14.18;98.04
53758;BME280;39674;59.860;30.672;2023-05-22T13:48:58;101747.03;;;14.19;97.81
53758;BME280;39674;59.860;30.672;2023-05-22T13:52:19;101680.53;;;13.86;98.90
53758;BME280;39674;59.860;30.672;2023-05-22T13:55:25;101794.19;;;14.68;100.00
53758;BME280;39674;59.860;30.672;2023-05-22T14:01:50;101790.09;;;14.79;98.14
53758;BME280;39674;59.860;30.672;2023-05-22T14:07:27;101724.59;;;14.78;95.12
53758;BME280;39674;59.860;30.672;2023-05-22T14:10:05;101760.69;;;15.15;95.82
53758;BME280;39674;59.860;30.672;2023-05-22T14:12:40;101717.13;;;14.84;98.59
53758;BME280;39674;59.860;30.672;2023-05-22T14:15:11;101653.56;;;14.28;93.42
53758;BME280;39674;59.860;30.672;2023-05-22T14:18:00;101677.16;;;14.17;95.55
53758;BME280;39674;59.860;30.672;2023-05-22T14:21:00;101667.47;;;13.99;98.18
53758;BME280;39674;59.860;30.672;2023-05-22T14:23:42;101661.47;;;13.95;100.00
53758;BME280;39674;59.860;30.672;2023-05-22T14:26:31;101711.53;;;14.38;100.00
53758;BME280;39674;59.860;30.672;2023-05-22T14:29:32;101651.69;;;14.13;99.82
53758;BME280;39674;59.860;30.672;2023-05-22T14:32:12;101732.53;;;14.60;95.28
53758;BME280;39674;59.860;30.672;2023-05-22T14:35:43;101776.63;;;14.99;96.79
53758;BME280;39674;59.860;30.672;2023-05-22T14:38:22;101669.00;;;14.38;98.70
53758;BME280;39674;59.860;30.672;2023-05-22T15:26:21;101709.19;;;15.64;87.17
53758;BME280;39674;59.860;30.672;2023-05-22T15:29:19;101748.28;;;15.96;86.00
53758;BME280;39674;59.860;30.672;2023-05-22T15:32:06;101639.66;;;15.22;85.46
53758;BME280;39674;59.860;30.672;2023-05-22T15:50:43;101663.06;;;15.64;84.31
53758;BME280;39674;59.860;30.672;2023-05-22T15:53:25;101611.25;;;15.39;85.86
53758;BME280;39674;59.860;30.672;2023-05-22T15:55:53;101699.97;;;16.02;84.51
53758;BME280;39674;59.860;30.672;2023-05-22T15:58:22;101658.66;;;15.79;84.37
53758;BME280;39674;59.860;30.672;2023-05-22T16:00:57;101671.19;;;15.93;82.69
53758;BME280;39674;59.860;30.672;2023-05-22T16:03:27;101664.16;;;15.92;82.74
53758;BME280;39674;59.860;30.672;2023-05-22T16:06:07;101706.88;;;16.20;83.16
53758;BME280;39674;59.860;30.672;2023-05-22T16:08:38;101664.66;;;15.98;82.36
53758;BME280;39674;59.860;30.672;2023-05-22T16:11:27;101598.75;;;15.55;84.06
53758;BME280;39674;59.860;30.672;2023-05-22T16:13:56;101701.72;;;16.17;85.27
53758;BME280;39674;59.860;30.672;2023-05-22T16:16:29;101663.28;;;15.91;83.80
53758;BME280;39674;59.860;30.672;2023-05-22T16:19:00;101648.38;;;15.72;83.44
53758;BME280;39674;59.860;30.672;2023-05-22T16:21:31;101659.38;;;15.82;83.92
53758;BME280;39674;59.860;30.672;2023-05-22T16:24:03;101662.63;;;15.87;83.96
53758;BME280;39674;59.860;30.672;2023-05-22T16:26:41;101708.38;;;16.10;84.40
53758;BME280;39674;59.860;30.672;2023-05-22T16:29:20;101672.16;;;15.92;84.50
53758;BME280;39674;59.860;30.672;2023-05-22T16:31:50;101638.38;;;15.76;84.43
53758;BME280;39674;59.860;30.672;2023-05-22T16:34:21;101654.47;;;15.91;85.03
53758;BME280;39674;59.860;30.672;2023-05-22T16:36:54;101591.03;;;15.51;84.63
53758;BME280;39674;59.860;30.672;2023-05-22T16:39:31;101683.88;;;16.03;86.27
53758;BME280;39674;59.860;30.672;2023-05-22T16:42:00;101705.41;;;16.15;86.68
53758;BME280;39674;59.860;30.672;2023-05-22T16:44:31;101632.88;;;15.79;85.43
53758;BME280;39674;59.860;30.672;2023-05-22T16:47:03;101700.00;;;16.16;85.93
53758;BME280;39674;59.860;30.672;2023-05-22T16:49:32;101652.28;;;15.97;86.20
53758;BME280;39674;59.860;30.672;2023-05-22T16:52:04;101645.91;;;16.00;86.45
53758;BME280;39674;59.860;30.672;2023-05-22T16:54:33;101660.00;;;16.02;87.82
53758;BME280;39674;59.860;30.672;2023-05-22T16:57:03;101659.22;;;16.00;88.24
53758;BME280;39674;59.860;30.672;2023-05-22T16:59:32;101699.22;;;16.14;88.97
53758;BME280;39674;59.860;30.672;2023-05-22T17:02:01;101668.88;;;15.86;90.16
53758;BME280;39674;59.860;30.672;2023-05-22T17:04:34;101634.47;;;15.67;91.78
53758;BME280;39674;59.860;30.672;2023-05-22T17:07:04;101693.69;;;16.03;91.85
53758;BME280;39674;59.860;30.672;2023-05-22T17:09:33;101696.94;;;16.08;91.51
53758;BME280;39674;59.860;30.672;2023-05-22T17:12:02;101649.81;;;15.78;91.83
53758;BME280;39674;59.860;30.672;2023-05-22T17:14:31;101703.31;;;16.06;92.19
53758;BME280;39674;59.860;30.672;2023-05-22T17:17:00;101702.53;;;16.03;93.00
53758;BME280;39674;59.860;30.672;2023-05-22T17:19:31;101652.66;;;15.75;92.86
53758;BME280;39674;59.860;30.672;2023-05-22T17:22:00;101698.34;;;15.99;93.54
53758;BME280;39674;59.860;30.672;2023-05-22T17:24:30;101677.06;;;15.83;93.69
53758;BME280;39674;59.860;30.672;2023-05-22T17:27:02;101691.66;;;15.92;94.61
53758;BME280;39674;59.860;30.672;2023-05-22T17:29:33;101707.13;;;16.01;94.16
53758;BME280;39674;59.860;30.672;2023-05-22T17:32:05;101716.53;;;16.07;94.65
53758;BME280;39674;59.860;30.672;2023-05-22T17:34:34;101708.28;;;16.12;93.61
53758;BME280;39674;59.860;30.672;2023-05-22T17:37:03;101620.94;;;15.56;94.76
53758;BME280;39674;59.860;30.672;2023-05-22T17:39:33;101710.16;;;16.10;95.51
53758;BME280;39674;59.860;30.672;2023-05-22T17:46:11;101605.97;;;15.53;95.49
53758;BME280;39674;59.860;30.672;2023-05-22T17:48:55;101629.22;;;15.66;94.94
53758;BME280;39674;59.860;30.672;2023-05-22T17:51:29;101710.34;;;16.07;95.26
53758;BME280;39674;59.860;30.672;2023-05-22T17:54:00;101669.56;;;15.74;95.38
53758;BME280;39674;59.860;30.672;2023-05-22T17:56:32;101673.19;;;15.73;94.82
53758;BME280;39674;59.860;30.672;2023-05-22T17:59:00;101723.72;;;15.91;95.29
53758;BME280;39674;59.860;30.672;2023-05-22T18:01:32;101613.75;;;15.10;94.68
53758;BME280;39674;59.860;30.672;2023-05-22T18:04:05;101670.91;;;15.35;94.75
53758;BME280;39674;59.860;30.672;2023-05-22T18:07:05;101681.66;;;15.17;92.73
53758;BME280;39674;59.860;30.672;2023-05-22T18:09:36;101673.09;;;14.79;92.43
53758;BME280;39674;59.860;30.672;2023-05-22T18:12:28;101649.72;;;14.34;93.91
53758;BME280;39674;59.860;30.672;2023-05-22T18:18:02;101709.03;;;14.00;96.72
53758;BME280;39674;59.860;30.672;2023-05-22T18:20:48;101738.59;;;14.28;94.91
53758;BME280;39674;59.860;30.672;2023-05-22T18:24:35;101689.03;;;13.75;97.60
53758;BME280;39674;59.860;30.672;2023-05-22T18:27:38;101675.22;;;13.49;100.00
53758;BME280;39674;59.860;30.672;2023-05-22T18:31:03;101750.50;;;13.85;100.00
53758;BME280;39674;59.860;30.672;2023-05-22T18:34:36;101758.97;;;13.74;100.00
53758;BME280;39674;59.860;30.672;2023-05-22T18:38:03;101678.72;;;13.11;100.00
53758;BME280;39674;59.860;30.672;2023-05-22T18:40:52;101632.44;;;12.80;100.00
53758;BME280;39674;59.860;30.672;2023-05-22T18:43:52;101670.22;;;13.05;100.00
53758;BME280;39674;59.860;30.672;2023-05-22T18:46:31;101620.91;;;12.81;100.00
53758;BME280;39674;59.860;30.672;2023-05-22T18:49:08;101690.84;;;13.17;100.00
53758;BME280;39674;59.860;30.672;2023-05-22T18:52:28;101723.00;;;13.49;100.00
53758;BME280;39674;59.860;30.672;2023-05-22T18:55:59;101671.31;;;13.18;100.00
53758;BME280;39674;59.860;30.672;2023-05-22T18:59:21;101667.97;;;12.95;100.00
53758;BME280;39674;59.860;30.672;2023-05-22T19:02:44;101603.53;;;12.55;100.00
53758;BME280;39674;59.860;30.672;2023-05-22T19:05:33;101716.72;;;12.93;100.00
53758;BME280;39674;59.860;30.672;2023-05-22T19:08:11;101685.06;;;12.69;100.00
53758;BME280;39674;59.860;30.672;2023-05-22T19:10:40;101678.63;;;12.56;100.00
53758;BME280;39674;59.860;30.672;2023-05-22T19:13:20;101708.88;;;12.71;100.00
53758;BME280;39674;59.860;30.672;2023-05-22T19:15:49;101681.47;;;12.51;100.00
53758;BME280;39674;59.860;30.672;2023-05-22T19:18:21;101604.00;;;12.04;100.00
53758;BME280;39674;59.860;30.672;2023-05-22T19:20:50;101653.78;;;12.38;100.00
53758;BME280;39674;59.860;30.672;2023-05-22T19:23:22;101707.94;;;12.72;100.00
53758;BME280;39674;59.860;30.672;2023-05-22T19:25:53;101708.59;;;12.77;100.00
53758;BME280;39674;59.860;30.672;2023-05-22T19:28:23;101624.78;;;12.14;100.00
53758;BME280;39674;59.860;30.672;2023-05-22T19:30:55;101679.66;;;12.31;100.00
53758;BME280;39674;59.860;30.672;2023-05-22T19:33:35;101582.41;;;11.72;100.00
53758;BME280;39674;59.860;30.672;2023-05-22T19:36:25;101592.84;;;11.76;100.00
53758;BME280;39674;59.860;30.672;2023-05-22T19:39:07;101588.50;;;11.52;100.00
53758;BME280;39674;59.860;30.672;2023-05-22T19:42:39;101581.97;;;11.40;100.00
53758;BME280;39674;59.860;30.672;2023-05-22T20:02:43;101601.19;;;11.00;100.00
53758;BME280;39674;59.860;30.672;2023-05-22T20:39:33;101583.03;;;10.19;100.00
53758;BME280;39674;59.860;30.672;2023-05-22T20:47:59;101582.97;;;10.21;100.00
53758;BME280;39674;59.860;30.672;2023-05-22T20:51:58;101596.69;;;10.31;100.00
53758;BME280;39674;59.860;30.672;2023-05-22T21:12:31;101717.22;;;11.07;100.00
53758;BME280;39674;59.860;30.672;2023-05-22T21:16:22;101711.13;;;11.05;100.00
53758;BME280;39674;59.860;30.672;2023-05-22T21:20:49;101592.56;;;10.23;100.00
53758;BME280;39674;59.860;30.672;2023-05-22T21:29:04;101633.19;;;10.44;100.00
53758;BME280;39674;59.860;30.672;2023-05-22T21:32:16;101707.34;;;10.89;100.00
53758;BME280;39674;59.860;30.672;2023-05-22T21:36:08;101579.63;;;9.90;100.00
53758;BME280;39674;59.860;30.672;2023-05-22T21:39:10;101579.09;;;9.80;100.00
53758;BME280;39674;59.860;30.672;2023-05-22T21:42:23;101650.09;;;10.14;100.00
53758;BME280;39674;59.860;30.672;2023-05-22T21:45:52;101640.38;;;9.89;100.00
53758;BME280;39674;59.860;30.672;2023-05-22T21:52:44;101589.81;;;9.49;100.00
53758;BME280;39674;59.860;30.672;2023-05-22T21:56:00;101704.72;;;10.11;100.00
53758;BME280;39674;59.860;30.672;2023-05-22T21:59:16;101633.28;;;9.64;100.00
53758;BME280;39674;59.860;30.672;2023-05-22T22:03:47;101574.19;;;9.43;100.00
53758;BME280;39674;59.860;30.672;2023-05-22T22:06:14;101704.03;;;10.32;100.00
53758;BME280;39674;59.860;30.672;2023-05-22T22:17:23;101577.06;;;9.35;100.00
53758;BME280;39674;59.860;30.672;2023-05-22T22:20:36;101649.53;;;9.78;100.00
53758;BME280;39674;59.860;30.672;2023-05-22T22:23:45;101709.44;;;10.02;100.00
53758;BME280;39674;59.860;30.672;2023-05-22T22:27:09;101666.09;;;9.82;100.00
53758;BME280;39674;59.860;30.672;2023-05-22T22:31:00;101583.13;;;9.39;100.00
53758;BME280;39674;59.860;30.672;2023-05-22T22:34:19;101681.88;;;10.10;100.00
53758;BME280;39674;59.860;30.672;2023-05-22T22:37:23;101563.19;;;9.30;100.00
53758;BME280;39674;59.860;30.672;2023-05-22T22:42:11;101689.53;;;10.18;100.00
53758;BME280;39674;59.860;30.672;2023-05-22T22:43:48;101563.59;;;9.18;100.00
53758;BME280;39674;59.860;30.672;2023-05-22T22:46:57;101582.03;;;9.18;100.00
53758;BME280;39674;59.860;30.672;2023-05-22T22:54:08;101547.28;;;9.05;100.00
53758;BME280;39674;59.860;30.672;2023-05-22T22:57:41;101556.09;;;9.04;100.00
53758;BME280;39674;59.860;30.672;2023-05-22T23:01:02;101567.22;;;9.13;100.00
53758;BME280;39674;59.860;30.672;2023-05-22T23:05:52;101663.50;;;9.80;100.00
53758;BME280;39674;59.860;30.672;2023-05-22T23:08:36;101661.91;;;9.76;100.00
53758;BME280;39674;59.860;30.672;2023-05-22T23:12:36;101565.19;;;9.22;100.00
53758;BME280;39674;59.860;30.672;2023-05-22T23:16:25;101657.78;;;9.68;100.00
53758;BME280;39674;59.860;30.672;2023-05-22T23:19:25;101633.31;;;9.36;100.00
53758;BME280;39674;59.860;30.672;2023-05-22T23:22:26;101654.16;;;9.43;100.00
53758;BME280;39674;59.860;30.672;2023-05-22T23:25:45;101524.00;;;8.62;100.00
53758;BME280;39674;59.860;30.672;2023-05-22T23:32:25;101663.09;;;9.39;100.00
53758;BME280;39674;59.860;30.672;2023-05-22T23:35:06;101521.44;;;8.61;100.00
53758;BME280;39674;59.860;30.672;2023-05-22T23:37:37;101599.03;;;9.07;100.00
53758;BME280;39674;59.860;30.672;2023-05-22T23:40:08;101593.94;;;9.01;100.00
53758;BME280;39674;59.860;30.672;2023-05-22T23:42:40;101613.13;;;9.06;100.00
53758;BME280;39674;59.860;30.672;2023-05-22T23:45:09;101621.66;;;9.14;100.00
53758;BME280;39674;59.860;30.672;2023-05-22T23:47:42;101603.53;;;9.04;100.00
53758;BME280;39674;59.860;30.672;2023-05-22T23:50:13;101617.47;;;9.07;100.00
53758;BME280;39674;59.860;30.672;2023-05-22T23:52:42;101651.09;;;9.29;100.00
53758;BME280;39674;59.860;30.672;2023-05-22T23:55:13;101637.28;;;9.21;100.00
53758;BME280;39674;59.860;30.672;2023-05-22T23:57:42;101594.31;;;8.89;100.00
